Avon, North Carolina
Current Conditions -  °F | °C
As of 8:51 AM on Tuesday 21 Oct 2014 (Local Time) from KHSE Reporting Station
Clear Clear  
Wind Chill: 67°   Ceiling: Unl
Heat Index: 67°   Visibility: 10mi
Dew Point: 65°   Wind: 3mph
Humidity: 93%   Direction: 300°WNW
Pressure: 29.93"   Gusts: NA
Location:  35.35°N, 75.51°W
Report Text: KHSE 211251Z AUTO 30003KT 10SM CLR 19/18 A2993 RMK AO2 SLP134 T01940183 TSNO
Loading
Personal Weather Stations






























Interactive Weather Map
Tropical Storm Tracking
New forecast layout! Learn more

10-Day Weather Forecast

Advertisements
Track Severe Weather on mobile